Milford, NJ

3:31 AM EST on December 29, 2014 (GMT -0500)
schick reserve | Change Station
CLOSE
Current Station
Personal Weather Station
Location: Milford, NJ
Elevation: 358 ft
Nearby Weather Stations

Elev 358 ft 40.61 °N, 75.07 °W | Updated 3 seconds ago

Mostly Cloudy
Mostly Cloudy
35.4 °F
Feels Like 35 °F
N
0.0
Wind Variable Wind from North
Gusts 1.6 mph

Today
High -- | Low -- °F
--% Chance of Precip.
Yesterday
High -- | Low -- °F
Precip. -- in
7:23 AM 4:41 PM
First Quarter, 56% visible
Pressure 30.14 in
Visibility 10.0 miles
Clouds Clear
Windchill 35 °F
Dew Point 22 °F
Humidity 59%
Rainfall 0.00 in
Snow Depth Not available.
UV 0 out of 12
Pollen .10 out of 12
Air Quality Not available.
Flu Activity Not available.
METAR KDYL 290754Z AUTO 34007KT 10SM CLR 03/M04 A3013 RMK AO2 SLP207 T00281044

More Conditions Fewer Conditions

Pressure 30.14 in
Visibility 10.0 miles
Clouds Clear
Windchill 35 °F
Dew Point 22 °F
Humidity 59%
Rainfall 0.00 in
Snow Depth Not available.
UV 0 out of 12
Pollen .10 out of 12
Air Quality Not available.
Flu Activity Not available.
METAR KDYL 290754Z AUTO 34007KT 10SM CLR 03/M04 A3013 RMK AO2 SLP207 T00281044

More Conditions Fewer Conditions

10-Day Weather Forecast

Almanac

Astronomy

Dec. 29, 2014 Rise Set
Actual Time
Civil Twilight
Nautical Twilight
Astronomical Twilight
Moon
Length of Visible Light
Length of Day
Tomorrow will be .
, % of the Moon is Illuminated

Today's Extremes

State Highs State Lows

Community

WunderPhotos

Upload Photos

1,781,558 photos uploaded!

WunderBlogs® & News

Nearby

Air Quality

  Air Quality AQ Index Pollutant
Not available.

Snow Depth

Station Depth Elevation

Earthquake Activity

City Distance Mag. Time & Date
Minimum magnitude displayed is 2.5.

Coastal Water Temperatures

Place Temperature

Nearby Weather Stations